Mount Vernon, Virginia
Current Conditions -  °F | °C
As of 3:58 PM on Friday 28 Nov 2014 (Local Time) from KDAA Reporting Station
Clear Clear  
Wind Chill: 32°   Ceiling: Unl
Heat Index: 38°   Visibility: 10mi
Dew Point: 18°   Wind: 8mph
Humidity: 45%   Direction: 310°NW
Pressure: 30.29"   Gusts: NA
Location:  38.71°N, 77.08°W
Report Text: KDAA 282058Z AUTO 31007KT 10SM CLR 03/M08 A3029 RMK AO2 SLP261 T00321076 55003
Loading
Personal Weather Stations






























Interactive Weather Map New forecast layout! Learn more

10-Day Weather Forecast

Advertisements
Track Severe Weather on mobile